createdAt,value
2023-02-28T00:01:30.363Z,4.50
2023-02-28T00:03:58.447Z,4.25
2023-02-28T00:06:26.069Z,5.40
2023-02-28T00:11:22.892Z,4.22
2023-02-28T00:13:50.418Z,4.53
2023-02-28T00:16:20.874Z,4.88
2023-02-28T00:18:48.923Z,4.85
2023-02-28T00:21:18.140Z,5.80
2023-02-28T00:23:45.792Z,3.97
2023-02-28T00:26:13.392Z,4.50
2023-02-28T00:28:44.521Z,4.18
2023-02-28T00:31:12.116Z,4.40
2023-02-28T00:36:09.379Z,4.60
2023-02-28T00:38:40.856Z,4.43
2023-02-28T00:41:09.289Z,4.82
2023-02-28T00:43:38.611Z,4.30
2023-02-28T00:46:06.488Z,3.97
2023-02-28T00:48:34.024Z,5.00
2023-02-28T00:53:29.795Z,4.18
2023-02-28T00:55:58.645Z,4.43
2023-02-28T00:58:27.542Z,4.22
2023-02-28T01:00:55.218Z,4.43
2023-02-28T01:03:23.764Z,4.30
2023-02-28T01:05:51.603Z,3.78
2023-02-28T01:08:19.067Z,4.28
2023-02-28T01:13:14.274Z,4.53
2023-02-28T01:15:46.520Z,4.60
2023-02-28T01:18:14.010Z,4.38
2023-02-28T01:20:41.450Z,3.78
2023-02-28T01:23:10.417Z,4.55
2023-02-28T01:25:38.434Z,4.35
2023-02-28T01:28:07.216Z,4.65
2023-02-28T01:30:35.385Z,4.35
2023-02-28T01:33:03.290Z,3.63
2023-02-28T01:35:34.870Z,4.15
2023-02-28T01:38:20.402Z,4.30
2023-02-28T01:40:49.096Z,4.32
2023-02-28T01:45:57.574Z,3.83
2023-02-28T01:48:32.633Z,4.28
2023-02-28T01:51:06.412Z,4.18
2023-02-28T01:53:38.600Z,4.43
2023-02-28T01:56:08.308Z,4.25
2023-02-28T01:58:38.092Z,4.18
2023-02-28T02:01:06.241Z,4.00
2023-02-28T02:03:37.032Z,4.20
2023-02-28T02:06:05.123Z,4.95
2023-02-28T02:08:32.586Z,4.35
2023-02-28T02:13:56.628Z,4.50
2023-02-28T02:16:36.638Z,4.28
2023-02-28T02:19:25.537Z,4.95
2023-02-28T02:22:22.357Z,4.63
2023-02-28T02:25:05.739Z,4.88
2023-02-28T02:28:13.934Z,4.78
2023-02-28T02:30:50.241Z,4.45
2023-02-28T02:33:38.417Z,4.53
2023-02-28T02:36:39.628Z,4.30
2023-02-28T02:39:24.845Z,4.55
2023-02-28T02:41:54.920Z,4.43
2023-02-28T02:44:27.326Z,4.68
2023-02-28T02:47:02.249Z,4.60
2023-02-28T02:49:33.444Z,4.25
2023-02-28T02:52:11.252Z,4.53
2023-02-28T02:54:43.660Z,4.97
2023-02-28T02:57:18.860Z,5.30
2023-02-28T02:59:46.897Z,4.75
2023-02-28T03:02:18.726Z,4.82
2023-02-28T03:04:56.925Z,5.10
2023-02-28T03:07:24.639Z,5.00
2023-02-28T03:09:57.761Z,4.95
2023-02-28T03:12:35.365Z,4.80
2023-02-28T03:15:20.729Z,5.03
2023-02-28T03:17:53.806Z,4.63
2023-02-28T03:20:39.683Z,4.97
2023-02-28T03:23:25.073Z,5.15
2023-02-28T03:26:08.974Z,5.00
2023-02-28T03:28:50.493Z,5.10
2023-02-28T03:31:30.642Z,4.82
2023-02-28T03:34:02.966Z,4.93
2023-02-28T03:36:33.526Z,4.82
2023-02-28T03:39:06.535Z,5.25
2023-02-28T03:41:40.126Z,4.95
2023-02-28T03:44:17.756Z,4.97
2023-02-28T03:46:54.393Z,5.28
2023-02-28T03:49:26.303Z,5.40
2023-02-28T03:51:57.459Z,5.47
2023-02-28T03:54:31.734Z,4.95
2023-02-28T03:57:24.695Z,5.20
2023-02-28T03:59:58.956Z,5.10
2023-02-28T04:02:26.800Z,5.25
2023-02-28T04:04:54.930Z,5.50
2023-02-28T04:07:22.577Z,5.40
2023-02-28T04:09:50.090Z,5.70
2023-02-28T04:12:17.789Z,6.15
2023-02-28T04:14:45.250Z,5.60
2023-02-28T04:17:12.854Z,6.57
2023-02-28T04:19:40.247Z,6.18
2023-02-28T04:22:09.563Z,5.60
2023-02-28T04:24:37.240Z,5.63
2023-02-28T04:27:05.109Z,5.78
2023-02-28T04:29:36.032Z,6.00
2023-02-28T04:32:04.437Z,5.65
2023-02-28T04:34:33.067Z,6.35
2023-02-28T04:37:17.006Z,6.68
2023-02-28T04:39:45.057Z,6.35
2023-02-28T04:42:13.628Z,6.05
2023-02-28T04:44:41.082Z,6.45
2023-02-28T04:47:08.511Z,6.78
2023-02-28T04:52:03.214Z,6.57
2023-02-28T04:56:58.552Z,6.32
2023-02-28T04:59:26.121Z,6.07
2023-02-28T05:04:20.998Z,6.57
2023-02-28T05:11:43.076Z,7.10
2023-02-28T05:16:40.492Z,6.88
2023-02-28T05:19:08.081Z,6.80
2023-02-28T05:21:53.056Z,7.40
2023-02-28T05:24:23.870Z,6.68
2023-02-28T05:26:54.207Z,6.97
2023-02-28T05:29:22.352Z,6.75
2023-02-28T05:31:50.000Z,6.80
2023-02-28T05:34:17.524Z,7.68
2023-02-28T05:39:14.205Z,7.20
2023-02-28T05:41:43.819Z,7.07
2023-02-28T05:44:12.132Z,7.35
2023-02-28T05:46:39.708Z,7.03
2023-02-28T05:51:37.336Z,7.40
2023-02-28T05:54:05.117Z,7.30
2023-02-28T05:56:33.118Z,8.10
2023-02-28T05:59:00.555Z,7.85
2023-02-28T06:04:22.327Z,7.70
2023-02-28T06:06:58.628Z,7.28
2023-02-28T06:09:26.302Z,7.55
2023-02-28T06:11:53.856Z,7.85
2023-02-28T06:16:49.334Z,8.07
2023-02-28T06:19:17.428Z,7.93
2023-02-28T06:21:45.482Z,7.88
2023-02-28T06:24:12.893Z,7.80
2023-02-28T06:29:08.390Z,8.15
2023-02-28T06:31:36.105Z,8.30
2023-02-28T06:34:03.788Z,8.63
2023-02-28T06:36:31.800Z,7.90
2023-02-28T06:38:59.243Z,8.30
2023-02-28T06:43:56.164Z,8.38
2023-02-28T06:46:24.516Z,8.98
2023-02-28T06:48:52.002Z,8.68
2023-02-28T06:53:52.999Z,8.65
2023-02-28T06:56:24.607Z,8.25
2023-02-28T06:58:57.248Z,8.60
2023-02-28T07:01:25.441Z,9.43
2023-02-28T07:03:54.316Z,8.82
2023-02-28T07:06:26.115Z,8.95
2023-02-28T07:08:54.913Z,9.25
2023-02-28T07:11:26.694Z,9.43
2023-02-28T07:13:58.325Z,8.55
2023-02-28T07:16:26.796Z,9.43
2023-02-28T07:18:55.227Z,8.35
2023-02-28T07:21:23.251Z,8.68
2023-02-28T07:23:51.203Z,8.85
2023-02-28T07:26:20.724Z,8.13
2023-02-28T07:28:49.623Z,8.88
2023-02-28T07:31:18.662Z,8.68
2023-02-28T07:33:46.170Z,8.05
2023-02-28T07:36:16.493Z,8.68
2023-02-28T07:38:49.391Z,9.00
2023-02-28T07:41:18.033Z,7.68
2023-02-28T07:43:45.970Z,8.32
2023-02-28T07:46:18.491Z,8.10
2023-02-28T07:48:46.133Z,8.23
2023-02-28T07:53:41.091Z,8.25
2023-02-28T07:58:36.384Z,8.82
2023-02-28T08:01:11.758Z,8.50
2023-02-28T08:03:40.478Z,8.65
2023-02-28T08:06:15.794Z,8.07
2023-02-28T08:08:43.542Z,9.10
2023-02-28T08:11:11.089Z,9.32
2023-02-28T08:13:38.740Z,8.60
2023-02-28T08:16:06.743Z,8.95
2023-02-28T08:18:34.708Z,9.15
2023-02-28T08:21:08.173Z,9.18
2023-02-28T08:23:36.298Z,9.20
2023-02-28T08:26:04.472Z,9.55
2023-02-28T08:28:31.982Z,9.75
2023-02-28T08:33:29.034Z,9.43
2023-02-28T08:35:57.549Z,8.73
2023-02-28T08:38:25.699Z,8.60
2023-02-28T08:41:01.418Z,9.57
2023-02-28T08:43:30.095Z,10.35
2023-02-28T08:46:00.758Z,8.63
2023-02-28T08:48:30.687Z,9.43
2023-02-28T08:51:07.829Z,9.55
2023-02-28T08:53:40.622Z,9.00
2023-02-28T08:56:13.677Z,9.43
2023-02-28T08:58:41.521Z,10.02
2023-02-28T09:01:16.173Z,9.98
2023-02-28T09:03:44.943Z,9.80
2023-02-28T09:06:12.709Z,10.27
2023-02-28T09:08:40.746Z,9.32
2023-02-28T09:11:09.201Z,9.95
2023-02-28T09:13:37.354Z,9.68
2023-02-28T09:16:07.683Z,9.93
2023-02-28T09:18:38.584Z,9.82
2023-02-28T09:21:07.972Z,8.90
2023-02-28T09:23:36.191Z,9.52
2023-02-28T09:26:03.955Z,10.25
2023-02-28T09:28:31.386Z,10.05
2023-02-28T09:31:00.076Z,9.32
2023-02-28T09:33:27.730Z,9.25
2023-02-28T09:36:04.990Z,9.32
2023-02-28T09:38:32.970Z,9.02
2023-02-28T09:41:04.185Z,8.68
2023-02-28T09:43:38.853Z,9.65
2023-02-28T09:46:12.637Z,8.68
2023-02-28T09:48:48.132Z,8.70
2023-02-28T09:51:32.927Z,8.88
2023-02-28T09:54:02.222Z,8.00
2023-02-28T09:56:42.420Z,8.15
2023-02-28T09:59:24.007Z,7.20
2023-02-28T10:02:05.578Z,7.78
2023-02-28T10:04:55.470Z,7.32
2023-02-28T10:07:41.101Z,6.38
2023-02-28T10:10:32.500Z,7.00
2023-02-28T10:13:06.536Z,6.40
2023-02-28T10:15:36.850Z,6.70
2023-02-28T10:18:16.780Z,6.55
2023-02-28T10:20:46.722Z,6.40
2023-02-28T10:23:37.043Z,7.05
2023-02-28T10:26:24.983Z,6.60
2023-02-28T10:28:54.259Z,6.53
2023-02-28T10:31:23.070Z,6.82
2023-02-28T10:33:51.578Z,6.47
2023-02-28T10:38:49.276Z,5.55
2023-02-28T10:41:43.110Z,5.40
2023-02-28T10:44:28.408Z,4.80
2023-02-28T10:46:57.661Z,5.72
2023-02-28T10:49:28.349Z,5.32
2023-02-28T10:51:59.120Z,5.45
2023-02-28T10:54:32.725Z,5.65
2023-02-28T10:57:23.288Z,5.25
2023-02-28T11:00:07.368Z,5.70
2023-02-28T11:02:37.156Z,5.72
2023-02-28T11:05:27.918Z,4.90
2023-02-28T11:08:04.327Z,4.53
2023-02-28T11:10:36.219Z,4.10
2023-02-28T11:13:04.882Z,4.13
2023-02-28T11:15:35.426Z,3.88
2023-02-28T11:18:23.923Z,3.58
2023-02-28T11:20:55.276Z,4.10
2023-02-28T11:23:28.769Z,4.55
2023-02-28T11:26:00.839Z,4.45
2023-02-28T11:28:35.726Z,4.35
2023-02-28T11:31:07.784Z,3.50
2023-02-28T11:33:52.245Z,3.45
2023-02-28T11:36:25.800Z,3.75
2023-02-28T11:39:02.939Z,3.38
2023-02-28T11:41:44.319Z,3.60
2023-02-28T11:44:36.562Z,3.50
2023-02-28T11:47:21.466Z,3.63
2023-02-28T11:50:20.761Z,3.47
2023-02-28T11:53:17.980Z,3.38
2023-02-28T11:56:12.443Z,3.70
2023-02-28T11:58:55.199Z,3.40
2023-02-28T12:01:32.512Z,3.30
2023-02-28T12:04:11.637Z,3.42
2023-02-28T12:07:04.568Z,3.47
2023-02-28T12:09:45.206Z,3.47
2023-02-28T12:12:33.545Z,2.70
2023-02-28T12:15:33.717Z,3.13
2023-02-28T12:18:28.043Z,3.03
2023-02-28T12:21:06.952Z,3.03
2023-02-28T12:23:52.676Z,3.50
2023-02-28T12:26:29.746Z,3.67
2023-02-28T12:29:12.994Z,3.35
2023-02-28T12:31:46.357Z,3.75
2023-02-28T12:34:21.680Z,4.05
2023-02-28T12:36:51.740Z,3.80
2023-02-28T12:39:36.458Z,3.70
2023-02-28T12:42:13.146Z,3.40
2023-02-28T12:45:00.114Z,3.60
2023-02-28T12:47:27.945Z,3.70
2023-02-28T12:50:06.222Z,3.45
2023-02-28T12:52:40.717Z,3.42
2023-02-28T12:55:26.386Z,3.08
2023-02-28T12:58:18.550Z,3.60
2023-02-28T13:01:29.287Z,3.05
2023-02-28T13:04:09.336Z,2.97
2023-02-28T13:07:02.253Z,3.35
2023-02-28T13:09:30.749Z,3.22
2023-02-28T13:11:59.529Z,3.40
2023-02-28T13:14:34.044Z,3.22
2023-02-28T13:17:10.443Z,3.33
2023-02-28T13:19:41.812Z,3.30
2023-02-28T13:22:27.590Z,3.28
2023-02-28T13:24:57.005Z,2.92
2023-02-28T13:27:41.533Z,3.00
2023-02-28T13:30:46.534Z,3.20
2023-02-28T13:33:36.427Z,3.08
2023-02-28T13:36:19.471Z,3.00
2023-02-28T13:38:54.894Z,3.10
2023-02-28T13:41:37.481Z,3.38
2023-02-28T13:44:14.388Z,3.47
2023-02-28T13:46:50.817Z,3.25
2023-02-28T13:49:24.283Z,3.60
2023-02-28T13:52:24.302Z,3.28
2023-02-28T13:55:00.192Z,3.50
2023-02-28T13:57:36.875Z,3.72
2023-02-28T14:00:06.730Z,3.70
2023-02-28T14:03:03.979Z,3.60
2023-02-28T14:05:34.922Z,3.67
2023-02-28T14:08:14.819Z,3.67
2023-02-28T14:10:49.079Z,3.58
2023-02-28T14:13:28.594Z,3.53
2023-02-28T14:16:04.172Z,3.50
2023-02-28T14:18:35.251Z,3.22
2023-02-28T14:21:08.373Z,3.45
2023-02-28T14:23:50.256Z,4.18
2023-02-28T14:26:38.814Z,3.65
2023-02-28T14:29:28.400Z,3.30
2023-02-28T14:32:14.532Z,3.03
2023-02-28T14:34:45.196Z,3.40
2023-02-28T14:37:21.317Z,3.67
2023-02-28T14:39:49.950Z,3.60
2023-02-28T14:42:35.384Z,4.32
2023-02-28T14:45:03.685Z,3.80
2023-02-28T14:47:36.446Z,4.30
2023-02-28T14:50:06.099Z,4.72
2023-02-28T14:52:34.230Z,4.60
2023-02-28T14:55:11.525Z,4.53
2023-02-28T15:00:32.967Z,5.57
2023-02-28T15:03:02.874Z,5.80
2023-02-28T15:05:35.458Z,6.82
2023-02-28T15:08:12.872Z,6.00
2023-02-28T15:10:45.312Z,5.75
2023-02-28T15:13:16.306Z,5.63
2023-02-28T15:16:03.914Z,5.45
2023-02-28T15:18:46.945Z,5.18
2023-02-28T15:21:19.146Z,5.25
2023-02-28T15:23:52.277Z,5.47
2023-02-28T15:26:24.236Z,5.60
2023-02-28T15:29:02.659Z,4.80
2023-02-28T15:31:55.917Z,5.20
2023-02-28T15:34:45.177Z,5.97
2023-02-28T15:37:32.264Z,7.20
2023-02-28T15:40:31.966Z,6.00
2023-02-28T15:43:15.169Z,6.18
2023-02-28T15:45:48.159Z,6.50
2023-02-28T15:48:19.791Z,6.85
2023-02-28T15:51:02.325Z,6.38
2023-02-28T15:53:33.772Z,6.20
2023-02-28T15:56:04.395Z,6.32
2023-02-28T15:58:33.646Z,7.03
2023-02-28T16:01:20.202Z,7.85
2023-02-28T16:03:50.928Z,8.80
2023-02-28T16:06:18.272Z,8.52
2023-02-28T16:08:46.015Z,8.52
2023-02-28T16:11:13.487Z,8.18
2023-02-28T16:18:35.689Z,8.23
2023-02-28T16:23:30.489Z,8.68
2023-02-28T16:30:58.474Z,8.73
2023-02-28T16:35:53.601Z,8.48
2023-02-28T16:38:22.692Z,9.60
2023-02-28T16:40:51.870Z,9.20
2023-02-28T16:43:23.657Z,9.90
2023-02-28T16:45:56.661Z,9.93
2023-02-28T16:48:24.316Z,9.45
2023-02-28T16:50:52.532Z,10.20
2023-02-28T16:53:20.042Z,9.25
2023-02-28T16:58:17.637Z,9.65
2023-02-28T17:00:45.217Z,9.55
2023-02-28T17:03:34.339Z,9.45
2023-02-28T17:06:02.205Z,11.07
2023-02-28T17:08:30.929Z,10.13
2023-02-28T17:10:58.960Z,10.02
2023-02-28T17:13:26.499Z,10.32
2023-02-28T17:15:54.196Z,11.18
2023-02-28T17:18:24.539Z,10.45
2023-02-28T17:20:52.114Z,11.38
2023-02-28T17:25:57.157Z,11.52
2023-02-28T17:28:26.183Z,12.07
2023-02-28T17:30:53.721Z,11.50
2023-02-28T17:33:21.299Z,11.38
2023-02-28T17:38:19.755Z,11.23
2023-02-28T17:40:47.236Z,12.05
2023-02-28T17:45:46.086Z,10.43
2023-02-28T17:50:41.551Z,8.82
2023-02-28T17:53:09.111Z,9.07
2023-02-28T17:55:37.143Z,8.95
2023-02-28T17:58:04.911Z,9.00
2023-02-28T18:00:34.618Z,10.32
2023-02-28T18:03:02.222Z,9.52
2023-02-28T18:05:29.968Z,8.45
2023-02-28T18:07:58.048Z,8.40
2023-02-28T18:10:25.770Z,8.50
2023-02-28T18:12:53.352Z,7.80
2023-02-28T18:15:22.963Z,8.00
2023-02-28T18:17:50.868Z,7.45
2023-02-28T18:20:19.117Z,7.65
2023-02-28T18:22:47.667Z,8.23
2023-02-28T18:25:17.123Z,7.38
2023-02-28T18:27:54.321Z,7.78
2023-02-28T18:30:22.601Z,8.77
2023-02-28T18:32:50.228Z,7.72
2023-02-28T18:35:34.662Z,6.90
2023-02-28T18:38:06.670Z,7.60
2023-02-28T18:40:34.193Z,7.60
2023-02-28T18:45:30.126Z,7.57
2023-02-28T18:47:57.739Z,7.60
2023-02-28T18:50:25.220Z,7.00
2023-02-28T18:55:20.107Z,7.25
2023-02-28T18:57:48.102Z,7.55
2023-02-28T19:00:19.791Z,7.05
2023-02-28T19:02:47.462Z,8.48
2023-02-28T19:05:14.953Z,11.43
2023-02-28T19:07:42.547Z,12.05
2023-02-28T19:10:12.105Z,11.52
2023-02-28T19:12:42.450Z,11.90
2023-02-28T19:15:10.717Z,10.88
2023-02-28T19:17:38.614Z,11.45
2023-02-28T19:20:07.467Z,10.50
2023-02-28T19:22:35.132Z,9.32
2023-02-28T19:25:04.503Z,9.70
2023-02-28T19:27:32.362Z,8.60
2023-02-28T19:29:59.866Z,8.57
2023-02-28T19:32:27.883Z,8.10
2023-02-28T19:34:55.550Z,8.48
2023-02-28T19:37:23.317Z,8.57
2023-02-28T19:44:46.014Z,7.50
2023-02-28T19:47:14.286Z,9.13
2023-02-28T19:49:41.894Z,8.27
2023-02-28T19:52:13.336Z,7.80
2023-02-28T19:54:42.983Z,7.32
2023-02-28T19:59:39.618Z,7.10
2023-02-28T20:02:14.658Z,7.38
2023-02-28T20:04:42.337Z,6.85
2023-02-28T20:07:09.840Z,6.45
2023-02-28T20:12:07.127Z,6.25
2023-02-28T20:14:37.307Z,7.15
2023-02-28T20:17:04.883Z,7.47
2023-02-28T20:19:32.415Z,7.53
2023-02-28T20:24:29.724Z,6.75
2023-02-28T20:26:57.691Z,7.28
2023-02-28T20:29:25.519Z,7.25
2023-02-28T20:31:52.938Z,7.82
2023-02-28T20:36:47.832Z,6.60
2023-02-28T20:41:42.715Z,7.45
2023-02-28T20:46:41.496Z,6.82
2023-02-28T20:49:10.018Z,7.43
2023-02-28T20:51:40.141Z,7.30
2023-02-28T20:54:09.289Z,7.30
2023-02-28T20:56:37.466Z,8.48
2023-02-28T20:59:05.672Z,8.00
2023-02-28T21:01:33.680Z,8.68
2023-02-28T21:04:04.045Z,8.07
2023-02-28T21:06:35.108Z,8.75
2023-02-28T21:09:09.041Z,8.00
2023-02-28T21:11:38.654Z,7.72
2023-02-28T21:14:09.651Z,8.43
2023-02-28T21:16:38.063Z,8.32
2023-02-28T21:19:05.821Z,8.32
2023-02-28T21:21:39.790Z,7.68
2023-02-28T21:24:07.798Z,7.43
2023-02-28T21:26:35.413Z,7.97
2023-02-28T21:29:03.424Z,8.45
2023-02-28T21:31:33.567Z,8.35
2023-02-28T21:34:03.193Z,8.20
2023-02-28T21:36:37.151Z,8.50
2023-02-28T21:39:12.396Z,9.40
2023-02-28T21:41:41.740Z,9.32
2023-02-28T21:44:18.220Z,9.95
2023-02-28T21:46:48.966Z,9.90
2023-02-28T21:49:17.200Z,9.48
2023-02-28T21:51:44.993Z,10.05
2023-02-28T21:54:12.843Z,10.07
2023-02-28T21:56:40.789Z,9.98
2023-02-28T21:59:09.798Z,10.07
2023-02-28T22:01:41.247Z,9.77
2023-02-28T22:04:11.075Z,10.77
2023-02-28T22:06:41.362Z,10.98
2023-02-28T22:09:10.272Z,11.70
2023-02-28T22:11:38.770Z,11.23
2023-02-28T22:14:07.702Z,11.05
2023-02-28T22:16:50.346Z,12.02
2023-02-28T22:19:20.441Z,11.00
2023-02-28T22:21:48.564Z,11.82
2023-02-28T22:24:18.102Z,11.80
2023-02-28T22:26:45.672Z,11.75
2023-02-28T22:34:09.631Z,12.20
2023-02-28T22:36:37.635Z,12.15
2023-02-28T22:39:05.743Z,12.40
2023-02-28T22:41:33.623Z,12.15
2023-02-28T22:44:03.941Z,12.48
2023-02-28T22:46:33.838Z,13.45
2023-02-28T22:49:03.254Z,13.70
2023-02-28T22:51:31.326Z,13.05
2023-02-28T22:53:58.954Z,14.05
2023-02-28T22:56:29.168Z,13.75
2023-02-28T22:58:58.684Z,12.57
2023-02-28T23:01:28.886Z,13.90
2023-02-28T23:03:56.890Z,13.27
2023-02-28T23:06:30.754Z,13.95
2023-02-28T23:09:01.408Z,12.65
2023-02-28T23:11:34.020Z,13.68
2023-02-28T23:14:02.624Z,13.25
2023-02-28T23:16:43.101Z,15.30
2023-02-28T23:19:15.381Z,13.23
2023-02-28T23:21:44.163Z,13.65
2023-02-28T23:24:13.531Z,13.93
2023-02-28T23:26:44.195Z,13.68
2023-02-28T23:29:13.776Z,13.60
2023-02-28T23:31:41.245Z,14.57
2023-02-28T23:39:04.343Z,13.45
2023-02-28T23:41:32.263Z,13.70
2023-02-28T23:43:59.697Z,14.65
2023-02-28T23:46:27.257Z,14.35
2023-02-28T23:48:54.752Z,14.55
2023-02-28T23:51:22.873Z,13.95
2023-02-28T23:53:52.255Z,15.00
2023-02-28T23:56:22.396Z,14.68
2023-02-28T23:58:50.660Z,13.80
